sensor_id;sensor_type;location;lat;lon;timestamp;pressure;altitude;pressure_sealevel;temperature;humidity
75629;BME280;64213;46.452;16.994;2023-04-19T00:00:33;100076.31;;;9.94;90.35
75629;BME280;64213;46.452;16.994;2023-04-19T00:03:36;100071.69;;;9.98;90.22
75629;BME280;64213;46.452;16.994;2023-04-19T00:06:39;100075.19;;;9.98;89.98
75629;BME280;64213;46.452;16.994;2023-04-19T00:09:42;100076.91;;;9.99;89.98
75629;BME280;64213;46.452;16.994;2023-04-19T00:12:45;100079.53;;;9.99;89.91
75629;BME280;64213;46.452;16.994;2023-04-19T00:15:47;100076.06;;;9.99;89.78
75629;BME280;64213;46.452;16.994;2023-04-19T00:18:49;100070.78;;;9.99;89.68
75629;BME280;64213;46.452;16.994;2023-04-19T00:21:51;100068.97;;;9.99;89.58
75629;BME280;64213;46.452;16.994;2023-04-19T00:24:53;100076.12;;;9.97;89.70
75629;BME280;64213;46.452;16.994;2023-04-19T00:27:56;100067.37;;;9.97;89.57
75629;BME280;64213;46.452;16.994;2023-04-19T00:30:58;100061.22;;;9.96;89.58
75629;BME280;64213;46.452;16.994;2023-04-19T00:34:00;100057.63;;;9.97;89.36
75629;BME280;64213;46.452;16.994;2023-04-19T00:37:02;100065.56;;;9.97;89.32
75629;BME280;64213;46.452;16.994;2023-04-19T00:40:07;100055.38;;;9.91;89.40
75629;BME280;64213;46.452;16.994;2023-04-19T00:43:10;100055.28;;;9.93;89.39
75629;BME280;64213;46.452;16.994;2023-04-19T00:46:13;100056.22;;;9.92;89.26
75629;BME280;64213;46.452;16.994;2023-04-19T00:49:17;100063.41;;;9.90;89.33
75629;BME280;64213;46.452;16.994;2023-04-19T00:52:21;100052.00;;;9.89;89.22
75629;BME280;64213;46.452;16.994;2023-04-19T00:55:23;100053.75;;;9.89;89.28
75629;BME280;64213;46.452;16.994;2023-04-19T00:58:27;100040.72;;;9.86;89.35
75629;BME280;64213;46.452;16.994;2023-04-19T01:01:30;100040.91;;;9.83;89.48
75629;BME280;64213;46.452;16.994;2023-04-19T01:04:33;100041.97;;;9.80;89.49
75629;BME280;64213;46.452;16.994;2023-04-19T01:07:36;100029.81;;;9.77;89.41
75629;BME280;64213;46.452;16.994;2023-04-19T01:10:38;100021.22;;;9.74;89.50
75629;BME280;64213;46.452;16.994;2023-04-19T01:13:40;100030.25;;;9.70;89.55
75629;BME280;64213;46.452;16.994;2023-04-19T01:16:42;100020.81;;;9.66;89.69
75629;BME280;64213;46.452;16.994;2023-04-19T01:19:44;100017.63;;;9.61;89.91
75629;BME280;64213;46.452;16.994;2023-04-19T01:22:47;100012.78;;;9.53;90.13
75629;BME280;64213;46.452;16.994;2023-04-19T01:25:49;100016.47;;;9.50;90.37
75629;BME280;64213;46.452;16.994;2023-04-19T01:28:51;100007.97;;;9.45;90.58
75629;BME280;64213;46.452;16.994;2023-04-19T01:31:54;100010.81;;;9.42;90.69
75629;BME280;64213;46.452;16.994;2023-04-19T01:34:56;100007.56;;;9.37;90.92
75629;BME280;64213;46.452;16.994;2023-04-19T01:37:58;100007.84;;;9.32;91.06
75629;BME280;64213;46.452;16.994;2023-04-19T01:41:01;100000.13;;;9.29;91.20
75629;BME280;64213;46.452;16.994;2023-04-19T01:44:03;100005.84;;;9.22;91.35
75629;BME280;64213;46.452;16.994;2023-04-19T01:47:05;100000.06;;;9.15;91.75
75629;BME280;64213;46.452;16.994;2023-04-19T01:50:08;100007.50;;;9.08;92.05
75629;BME280;64213;46.452;16.994;2023-04-19T01:53:10;99990.69;;;8.95;92.49
75629;BME280;64213;46.452;16.994;2023-04-19T01:56:12;100006.87;;;8.89;92.67
75629;BME280;64213;46.452;16.994;2023-04-19T01:59:13;100008.94;;;8.84;92.95
75629;BME280;64213;46.452;16.994;2023-04-19T02:02:15;100007.56;;;8.77;93.42
75629;BME280;64213;46.452;16.994;2023-04-19T02:05:17;100001.81;;;8.70;93.84
75629;BME280;64213;46.452;16.994;2023-04-19T02:08:20;100000.47;;;8.63;93.97
75629;BME280;64213;46.452;16.994;2023-04-19T02:11:22;99992.87;;;8.57;93.84
75629;BME280;64213;46.452;16.994;2023-04-19T02:14:24;99988.72;;;8.53;94.18
75629;BME280;64213;46.452;16.994;2023-04-19T02:17:26;99985.44;;;8.49;93.92
75629;BME280;64213;46.452;16.994;2023-04-19T02:20:28;99980.41;;;8.45;94.12
75629;BME280;64213;46.452;16.994;2023-04-19T02:23:30;99980.56;;;8.42;93.94
75629;BME280;64213;46.452;16.994;2023-04-19T02:26:32;99977.09;;;8.41;94.04
75629;BME280;64213;46.452;16.994;2023-04-19T02:29:34;99981.59;;;8.39;94.15
75629;BME280;64213;46.452;16.994;2023-04-19T02:32:36;99978.25;;;8.35;94.18
75629;BME280;64213;46.452;16.994;2023-04-19T02:35:38;99980.19;;;8.32;94.23
75629;BME280;64213;46.452;16.994;2023-04-19T02:38:40;99978.69;;;8.28;94.51
75629;BME280;64213;46.452;16.994;2023-04-19T02:41:42;99970.94;;;8.25;94.60
75629;BME280;64213;46.452;16.994;2023-04-19T02:44:44;99968.31;;;8.25;94.66
75629;BME280;64213;46.452;16.994;2023-04-19T02:47:46;99965.69;;;8.25;94.52
75629;BME280;64213;46.452;16.994;2023-04-19T02:50:49;99975.28;;;8.26;94.36
75629;BME280;64213;46.452;16.994;2023-04-19T02:53:51;99968.31;;;8.25;94.32
75629;BME280;64213;46.452;16.994;2023-04-19T02:56:53;99969.16;;;8.25;94.33
75629;BME280;64213;46.452;16.994;2023-04-19T02:59:55;99970.94;;;8.25;94.46
75629;BME280;64213;46.452;16.994;2023-04-19T03:02:57;99966.62;;;8.24;94.29
75629;BME280;64213;46.452;16.994;2023-04-19T03:06:00;99965.78;;;8.23;94.15
75629;BME280;64213;46.452;16.994;2023-04-19T03:09:02;99969.31;;;8.22;94.15
75629;BME280;64213;46.452;16.994;2023-04-19T03:12:06;99965.84;;;8.22;94.15
75629;BME280;64213;46.452;16.994;2023-04-19T03:15:08;99964.16;;;8.21;94.22
75629;BME280;64213;46.452;16.994;2023-04-19T03:18:11;99959.62;;;8.23;94.04
75629;BME280;64213;46.452;16.994;2023-04-19T03:21:13;99960.50;;;8.23;94.20
75629;BME280;64213;46.452;16.994;2023-04-19T03:24:17;99948.34;;;8.21;94.09
75629;BME280;64213;46.452;16.994;2023-04-19T03:27:19;99952.59;;;8.23;94.06
75629;BME280;64213;46.452;16.994;2023-04-19T03:30:21;99952.66;;;8.22;94.18
75629;BME280;64213;46.452;16.994;2023-04-19T03:33:23;99942.47;;;8.15;94.28
75629;BME280;64213;46.452;16.994;2023-04-19T03:36:25;99946.56;;;8.21;94.03
75629;BME280;64213;46.452;16.994;2023-04-19T03:39:27;99945.72;;;8.21;94.25
75629;BME280;64213;46.452;16.994;2023-04-19T03:42:29;99939.50;;;8.22;94.04
75629;BME280;64213;46.452;16.994;2023-04-19T03:45:31;99942.13;;;8.22;94.08
75629;BME280;64213;46.452;16.994;2023-04-19T03:48:33;99938.72;;;8.20;94.07
75629;BME280;64213;46.452;16.994;2023-04-19T03:51:36;99947.84;;;8.14;94.39
75629;BME280;64213;46.452;16.994;2023-04-19T03:54:38;99942.75;;;8.11;94.47
75629;BME280;64213;46.452;16.994;2023-04-19T03:57:40;99946.38;;;8.08;94.60
75629;BME280;64213;46.452;16.994;2023-04-19T04:00:42;99942.97;;;8.06;94.75
75629;BME280;64213;46.452;16.994;2023-04-19T04:03:44;99941.28;;;8.05;94.75
75629;BME280;64213;46.452;16.994;2023-04-19T04:06:46;99940.50;;;8.03;94.82
75629;BME280;64213;46.452;16.994;2023-04-19T04:09:49;99943.97;;;8.04;94.87
75629;BME280;64213;46.452;16.994;2023-04-19T04:12:51;99949.25;;;8.04;94.93
75629;BME280;64213;46.452;16.994;2023-04-19T04:15:53;99953.50;;;8.06;95.03
75629;BME280;64213;46.452;16.994;2023-04-19T04:18:55;99949.97;;;8.07;95.07
75629;BME280;64213;46.452;16.994;2023-04-19T04:21:57;99947.16;;;8.10;95.06
75629;BME280;64213;46.452;16.994;2023-04-19T04:24:59;99951.31;;;8.14;94.70
75629;BME280;64213;46.452;16.994;2023-04-19T04:28:03;99946.56;;;8.21;94.64
75629;BME280;64213;46.452;16.994;2023-04-19T04:31:05;99951.47;;;8.27;94.27
75629;BME280;64213;46.452;16.994;2023-04-19T04:34:07;99946.88;;;8.31;93.99
75629;BME280;64213;46.452;16.994;2023-04-19T04:37:13;99952.94;;;8.33;94.06
75629;BME280;64213;46.452;16.994;2023-04-19T04:40:15;99952.75;;;8.36;93.87
75629;BME280;64213;46.452;16.994;2023-04-19T04:43:17;99957.00;;;8.38;94.02
75629;BME280;64213;46.452;16.994;2023-04-19T04:46:19;99958.47;;;8.44;93.90
75629;BME280;64213;46.452;16.994;2023-04-19T04:49:21;99955.59;;;8.49;93.71
75629;BME280;64213;46.452;16.994;2023-04-19T04:52:24;99966.53;;;8.57;93.41
75629;BME280;64213;46.452;16.994;2023-04-19T04:55:26;99957.50;;;8.61;93.31
75629;BME280;64213;46.452;16.994;2023-04-19T04:58:28;99961.41;;;8.70;93.04
75629;BME280;64213;46.452;16.994;2023-04-19T05:01:30;99960.19;;;8.75;92.87
75629;BME280;64213;46.452;16.994;2023-04-19T05:04:32;99962.50;;;8.81;92.66
75629;BME280;64213;46.452;16.994;2023-04-19T05:07:34;99950.75;;;8.87;92.37
75629;BME280;64213;46.452;16.994;2023-04-19T05:10:36;99954.53;;;8.97;92.16
75629;BME280;64213;46.452;16.994;2023-04-19T05:13:38;99955.00;;;9.04;92.03
75629;BME280;64213;46.452;16.994;2023-04-19T05:16:40;99952.50;;;9.17;91.62
75629;BME280;64213;46.452;16.994;2023-04-19T05:19:42;99958.25;;;9.23;91.30
75629;BME280;64213;46.452;16.994;2023-04-19T05:22:44;99946.31;;;9.32;90.73
75629;BME280;64213;46.452;16.994;2023-04-19T05:25:46;99946.59;;;9.42;90.71
75629;BME280;64213;46.452;16.994;2023-04-19T05:28:48;99950.38;;;9.52;89.92
75629;BME280;64213;46.452;16.994;2023-04-19T05:31:54;99946.41;;;9.59;89.58
75629;BME280;64213;46.452;16.994;2023-04-19T05:34:56;99945.66;;;9.71;89.22
75629;BME280;64213;46.452;16.994;2023-04-19T05:37:58;99941.59;;;9.80;88.84
75629;BME280;64213;46.452;16.994;2023-04-19T05:41:01;99946.13;;;9.92;88.25
75629;BME280;64213;46.452;16.994;2023-04-19T05:44:04;99942.03;;;10.01;88.08
75629;BME280;64213;46.452;16.994;2023-04-19T05:47:06;99943.25;;;10.10;87.28
75629;BME280;64213;46.452;16.994;2023-04-19T05:50:08;99941.34;;;10.12;87.38
75629;BME280;64213;46.452;16.994;2023-04-19T05:53:10;99949.44;;;10.23;87.23
75629;BME280;64213;46.452;16.994;2023-04-19T05:56:12;99950.97;;;10.27;86.88
75629;BME280;64213;46.452;16.994;2023-04-19T05:59:15;99941.78;;;10.33;86.76
75629;BME280;64213;46.452;16.994;2023-04-19T06:02:17;99940.91;;;10.46;85.68
75629;BME280;64213;46.452;16.994;2023-04-19T06:05:20;99944.28;;;10.48;85.73
75629;BME280;64213;46.452;16.994;2023-04-19T06:08:22;99943.69;;;10.58;85.64
75629;BME280;64213;46.452;16.994;2023-04-19T06:11:24;99948.47;;;10.38;86.08
75629;BME280;64213;46.452;16.994;2023-04-19T06:14:39;99946.22;;;10.32;86.16
75629;BME280;64213;46.452;16.994;2023-04-19T06:17:41;99941.16;;;10.29;86.22
75629;BME280;64213;46.452;16.994;2023-04-19T06:20:43;99941.13;;;10.43;85.82
75629;BME280;64213;46.452;16.994;2023-04-19T06:23:46;99947.25;;;10.44;85.83
75629;BME280;64213;46.452;16.994;2023-04-19T06:26:48;99944.47;;;10.45;85.83
75629;BME280;64213;46.452;16.994;2023-04-19T06:29:50;99947.28;;;10.57;86.00
75629;BME280;64213;46.452;16.994;2023-04-19T06:32:52;99950.59;;;10.60;85.64
75629;BME280;64213;46.452;16.994;2023-04-19T06:35:54;99945.25;;;10.47;85.94
75629;BME280;64213;46.452;16.994;2023-04-19T06:38:57;99950.91;;;10.68;85.33
75629;BME280;64213;46.452;16.994;2023-04-19T06:41:59;99946.75;;;10.91;84.98
75629;BME280;64213;46.452;16.994;2023-04-19T06:45:03;99952.31;;;10.74;85.26
75629;BME280;64213;46.452;16.994;2023-04-19T06:48:06;99949.72;;;11.00;84.28
75629;BME280;64213;46.452;16.994;2023-04-19T06:51:08;99952.16;;;11.03;83.86
75629;BME280;64213;46.452;16.994;2023-04-19T06:54:10;99944.03;;;11.18;83.28
75629;BME280;64213;46.452;16.994;2023-04-19T06:57:12;99949.25;;;11.20;83.12
75629;BME280;64213;46.452;16.994;2023-04-19T07:00:15;99947.22;;;11.24;82.98
75629;BME280;64213;46.452;16.994;2023-04-19T07:03:17;99953.38;;;11.50;81.82
75629;BME280;64213;46.452;16.994;2023-04-19T07:06:19;99943.59;;;11.76;80.99
75629;BME280;64213;46.452;16.994;2023-04-19T07:09:21;99941.47;;;11.81;80.61
75629;BME280;64213;46.452;16.994;2023-04-19T07:12:23;99940.84;;;12.03;79.77
75629;BME280;64213;46.452;16.994;2023-04-19T07:15:25;99936.16;;;12.30;78.99
75629;BME280;64213;46.452;16.994;2023-04-19T07:18:27;99933.63;;;12.53;78.14
75629;BME280;64213;46.452;16.994;2023-04-19T07:21:29;99944.34;;;12.75;77.59
75629;BME280;64213;46.452;16.994;2023-04-19T07:24:34;99943.66;;;12.85;77.20
75629;BME280;64213;46.452;16.994;2023-04-19T07:27:36;99942.50;;;13.00;76.31
75629;BME280;64213;46.452;16.994;2023-04-19T07:30:38;99942.28;;;13.14;75.40
75629;BME280;64213;46.452;16.994;2023-04-19T07:33:40;99936.66;;;13.19;75.50
75629;BME280;64213;46.452;16.994;2023-04-19T07:36:42;99934.47;;;13.24;75.09
75629;BME280;64213;46.452;16.994;2023-04-19T07:39:44;99936.84;;;13.62;74.71
75629;BME280;64213;46.452;16.994;2023-04-19T07:42:46;99939.84;;;14.14;72.49
75629;BME280;64213;46.452;16.994;2023-04-19T07:45:48;99943.81;;;14.19;72.58
75629;BME280;64213;46.452;16.994;2023-04-19T07:48:50;99932.13;;;14.11;71.09
75629;BME280;64213;46.452;16.994;2023-04-19T07:51:52;99925.91;;;14.22;71.31
75629;BME280;64213;46.452;16.994;2023-04-19T07:54:55;99939.25;;;14.10;72.35
75629;BME280;64213;46.452;16.994;2023-04-19T07:57:57;99940.22;;;13.53;72.89
75629;BME280;64213;46.452;16.994;2023-04-19T08:00:59;99938.75;;;13.49;73.98
75629;BME280;64213;46.452;16.994;2023-04-19T08:04:02;99936.09;;;13.49;72.68
75629;BME280;64213;46.452;16.994;2023-04-19T08:07:05;99934.81;;;13.66;72.26
75629;BME280;64213;46.452;16.994;2023-04-19T08:10:08;99933.94;;;13.88;71.78
75629;BME280;64213;46.452;16.994;2023-04-19T08:13:10;99932.94;;;14.11;71.26
75629;BME280;64213;46.452;16.994;2023-04-19T08:16:12;99937.03;;;14.15;71.30
75629;BME280;64213;46.452;16.994;2023-04-19T08:19:34;99933.44;;;13.94;71.07
75629;BME280;64213;46.452;16.994;2023-04-19T08:22:37;99939.97;;;13.90;71.89
75629;BME280;64213;46.452;16.994;2023-04-19T08:25:40;99937.09;;;13.70;70.53
75629;BME280;64213;46.452;16.994;2023-04-19T08:28:42;99942.53;;;13.58;71.80
75629;BME280;64213;46.452;16.994;2023-04-19T08:31:45;99940.72;;;13.69;71.14
75629;BME280;64213;46.452;16.994;2023-04-19T08:34:47;99933.69;;;13.68;70.39
75629;BME280;64213;46.452;16.994;2023-04-19T08:37:49;99939.75;;;13.82;70.80
75629;BME280;64213;46.452;16.994;2023-04-19T08:40:53;99933.31;;;13.84;70.41
75629;BME280;64213;46.452;16.994;2023-04-19T08:43:58;99940.13;;;13.88;70.06
75629;BME280;64213;46.452;16.994;2023-04-19T08:47:01;99933.34;;;13.62;70.71
75629;BME280;64213;46.452;16.994;2023-04-19T08:50:05;99929.84;;;13.72;70.20
75629;BME280;64213;46.452;16.994;2023-04-19T08:53:27;99937.31;;;13.45;71.03
75629;BME280;64213;46.452;16.994;2023-04-19T08:56:30;99936.09;;;13.49;71.09
75629;BME280;64213;46.452;16.994;2023-04-19T08:59:37;99930.31;;;13.55;71.03
75629;BME280;64213;46.452;16.994;2023-04-19T09:02:50;99928.28;;;13.70;71.12
75629;BME280;64213;46.452;16.994;2023-04-19T09:05:53;99928.03;;;13.73;71.17
75629;BME280;64213;46.452;16.994;2023-04-19T09:09:16;99923.69;;;13.72;71.10
75629;BME280;64213;46.452;16.994;2023-04-19T09:12:39;99919.66;;;14.00;70.38
75629;BME280;64213;46.452;16.994;2023-04-19T09:15:41;99924.87;;;13.90;70.58
75629;BME280;64213;46.452;16.994;2023-04-19T09:18:56;99920.53;;;13.89;70.54
75629;BME280;64213;46.452;16.994;2023-04-19T09:22:19;99919.53;;;13.90;70.33
75629;BME280;64213;46.452;16.994;2023-04-19T09:25:24;99912.91;;;13.73;69.98
75629;BME280;64213;46.452;16.994;2023-04-19T09:28:32;99916.91;;;13.68;69.59
75629;BME280;64213;46.452;16.994;2023-04-19T09:31:36;99920.41;;;13.57;70.11
75629;BME280;64213;46.452;16.994;2023-04-19T09:37:58;99914.56;;;13.18;72.84
75629;BME280;64213;46.452;16.994;2023-04-19T09:41:07;99920.97;;;13.27;73.21
75629;BME280;64213;46.452;16.994;2023-04-19T09:44:11;99916.47;;;13.16;73.62
75629;BME280;64213;46.452;16.994;2023-04-19T09:47:26;99914.75;;;13.04;74.19
75629;BME280;64213;46.452;16.994;2023-04-19T09:50:30;99910.19;;;13.06;74.75
75629;BME280;64213;46.452;16.994;2023-04-19T09:53:38;99920.28;;;12.90;75.59
75629;BME280;64213;46.452;16.994;2023-04-19T09:56:41;99925.53;;;12.78;76.16
75629;BME280;64213;46.452;16.994;2023-04-19T09:59:43;99922.84;;;12.67;76.62
75629;BME280;64213;46.452;16.994;2023-04-19T10:02:46;99922.47;;;12.61;77.25
75629;BME280;64213;46.452;16.994;2023-04-19T10:05:56;99931.16;;;12.39;78.15
75629;BME280;64213;46.452;16.994;2023-04-19T10:09:00;99928.56;;;12.26;79.32
75629;BME280;64213;46.452;16.994;2023-04-19T10:12:04;99927.41;;;12.17;80.79
75629;BME280;64213;46.452;16.994;2023-04-19T10:15:29;99918.00;;;12.13;81.15
75629;BME280;64213;46.452;16.994;2023-04-19T10:18:51;99921.25;;;12.17;81.39
75629;BME280;64213;46.452;16.994;2023-04-19T10:21:55;99929.53;;;12.12;81.23
75629;BME280;64213;46.452;16.994;2023-04-19T10:25:08;99924.69;;;12.06;82.01
75629;BME280;64213;46.452;16.994;2023-04-19T10:28:17;99919.00;;;11.86;82.05
75629;BME280;64213;46.452;16.994;2023-04-19T10:31:19;99924.09;;;11.90;81.43
75629;BME280;64213;46.452;16.994;2023-04-19T10:34:38;99917.94;;;11.76;81.72
75629;BME280;64213;46.452;16.994;2023-04-19T10:38:01;99916.03;;;11.78;82.29
75629;BME280;64213;46.452;16.994;2023-04-19T10:41:04;99915.63;;;11.84;82.92
75629;BME280;64213;46.452;16.994;2023-04-19T10:44:16;99913.59;;;11.75;82.23
75629;BME280;64213;46.452;16.994;2023-04-19T10:47:40;99908.09;;;11.78;82.02
75629;BME280;64213;46.452;16.994;2023-04-19T10:54:08;99902.03;;;11.89;81.97
75629;BME280;64213;46.452;16.994;2023-04-19T10:57:10;99897.72;;;11.88;81.98
75629;BME280;64213;46.452;16.994;2023-04-19T11:00:20;99894.63;;;11.81;82.67
75629;BME280;64213;46.452;16.994;2023-04-19T11:09:54;99897.50;;;11.66;84.05
75629;BME280;64213;46.452;16.994;2023-04-19T11:12:57;99893.03;;;11.79;83.53
75629;BME280;64213;46.452;16.994;2023-04-19T11:15:59;99894.84;;;11.91;83.54
75629;BME280;64213;46.452;16.994;2023-04-19T11:19:01;99893.47;;;12.22;83.61
75629;BME280;64213;46.452;16.994;2023-04-19T11:22:03;99879.44;;;12.44;82.18
75629;BME280;64213;46.452;16.994;2023-04-19T11:28:14;99886.00;;;12.87;79.59
75629;BME280;64213;46.452;16.994;2023-04-19T11:31:18;99884.97;;;13.12;78.85
75629;BME280;64213;46.452;16.994;2023-04-19T11:34:22;99877.63;;;13.26;78.70
75629;BME280;64213;46.452;16.994;2023-04-19T11:37:24;99868.81;;;13.48;78.34
75629;BME280;64213;46.452;16.994;2023-04-19T11:40:26;99878.75;;;13.69;76.93
75629;BME280;64213;46.452;16.994;2023-04-19T11:43:35;99879.00;;;13.66;74.94
75629;BME280;64213;46.452;16.994;2023-04-19T11:46:37;99870.53;;;13.61;75.10
75629;BME280;64213;46.452;16.994;2023-04-19T11:49:39;99873.56;;;13.34;75.17
75629;BME280;64213;46.452;16.994;2023-04-19T11:52:47;99871.16;;;12.84;76.82
75629;BME280;64213;46.452;16.994;2023-04-19T11:55:54;99874.94;;;12.69;78.06
75629;BME280;64213;46.452;16.994;2023-04-19T11:58:58;99874.19;;;12.55;79.04
75629;BME280;64213;46.452;16.994;2023-04-19T12:02:10;99875.56;;;12.37;79.59
75629;BME280;64213;46.452;16.994;2023-04-19T12:05:14;99870.75;;;12.18;79.82
75629;BME280;64213;46.452;16.994;2023-04-19T12:08:17;99865.84;;;12.25;80.55
75629;BME280;64213;46.452;16.994;2023-04-19T12:11:22;99873.47;;;12.29;80.08
75629;BME280;64213;46.452;16.994;2023-04-19T12:14:25;99874.47;;;12.40;80.33
75629;BME280;64213;46.452;16.994;2023-04-19T12:17:27;99859.09;;;12.56;79.71
75629;BME280;64213;46.452;16.994;2023-04-19T12:20:35;99855.91;;;12.75;79.15
75629;BME280;64213;46.452;16.994;2023-04-19T12:23:37;99854.16;;;12.98;78.67
75629;BME280;64213;46.452;16.994;2023-04-19T12:26:52;99845.22;;;12.99;78.46
75629;BME280;64213;46.452;16.994;2023-04-19T12:29:57;99839.31;;;13.07;78.04
75629;BME280;64213;46.452;16.994;2023-04-19T12:32:59;99841.00;;;13.08;77.35
75629;BME280;64213;46.452;16.994;2023-04-19T12:36:01;99835.47;;;12.99;77.59
75629;BME280;64213;46.452;16.994;2023-04-19T12:39:03;99840.50;;;12.91;76.40
75629;BME280;64213;46.452;16.994;2023-04-19T12:42:05;99834.81;;;12.85;75.02
75629;BME280;64213;46.452;16.994;2023-04-19T12:45:07;99834.66;;;12.64;76.06
75629;BME280;64213;46.452;16.994;2023-04-19T12:48:10;99840.63;;;12.43;76.77
75629;BME280;64213;46.452;16.994;2023-04-19T12:51:12;99832.72;;;12.54;76.56
75629;BME280;64213;46.452;16.994;2023-04-19T12:54:14;99823.41;;;12.60;76.71
75629;BME280;64213;46.452;16.994;2023-04-19T12:57:16;99825.87;;;12.74;76.64
75629;BME280;64213;46.452;16.994;2023-04-19T13:00:18;99824.44;;;12.70;76.88
75629;BME280;64213;46.452;16.994;2023-04-19T13:03:20;99823.28;;;13.19;75.76
75629;BME280;64213;46.452;16.994;2023-04-19T13:06:23;99821.59;;;13.30;75.62
75629;BME280;64213;46.452;16.994;2023-04-19T13:09:26;99823.69;;;13.37;74.80
75629;BME280;64213;46.452;16.994;2023-04-19T13:12:28;99806.34;;;13.77;73.12
75629;BME280;64213;46.452;16.994;2023-04-19T13:15:30;99801.41;;;15.30;68.16
75629;BME280;64213;46.452;16.994;2023-04-19T13:18:32;99785.59;;;16.27;64.84
75629;BME280;64213;46.452;16.994;2023-04-19T13:21:35;99791.44;;;16.99;61.48
75629;BME280;64213;46.452;16.994;2023-04-19T13:24:37;99787.00;;;16.80;63.33
75629;BME280;64213;46.452;16.994;2023-04-19T13:27:39;99775.88;;;16.65;60.30
75629;BME280;64213;46.452;16.994;2023-04-19T13:30:41;99778.00;;;16.51;61.31
75629;BME280;64213;46.452;16.994;2023-04-19T13:33:43;99779.81;;;16.61;61.51
75629;BME280;64213;46.452;16.994;2023-04-19T13:36:46;99766.66;;;16.30;60.81
75629;BME280;64213;46.452;16.994;2023-04-19T13:39:48;99769.88;;;16.14;60.17
75629;BME280;64213;46.452;16.994;2023-04-19T13:42:50;99764.81;;;16.11;59.58
75629;BME280;64213;46.452;16.994;2023-04-19T13:45:52;99765.34;;;17.20;57.02
75629;BME280;64213;46.452;16.994;2023-04-19T13:48:54;99760.75;;;17.85;55.53
75629;BME280;64213;46.452;16.994;2023-04-19T13:51:56;99755.22;;;17.69;53.71
75629;BME280;64213;46.452;16.994;2023-04-19T13:54:58;99747.50;;;16.64;56.98
75629;BME280;64213;46.452;16.994;2023-04-19T13:58:01;99756.81;;;16.40;57.19
75629;BME280;64213;46.452;16.994;2023-04-19T14:01:03;99752.13;;;15.65;58.90
75629;BME280;64213;46.452;16.994;2023-04-19T14:04:05;99740.81;;;15.82;58.58
75629;BME280;64213;46.452;16.994;2023-04-19T14:07:08;99733.66;;;16.31;57.07
75629;BME280;64213;46.452;16.994;2023-04-19T14:10:10;99737.81;;;15.56;58.82
75629;BME280;64213;46.452;16.994;2023-04-19T14:13:13;99731.03;;;15.42;59.47
75629;BME280;64213;46.452;16.994;2023-04-19T14:16:15;99729.19;;;15.83;58.23
75629;BME280;64213;46.452;16.994;2023-04-19T14:19:17;99726.94;;;16.74;55.02
75629;BME280;64213;46.452;16.994;2023-04-19T14:22:19;99722.25;;;17.51;52.77
75629;BME280;64213;46.452;16.994;2023-04-19T14:25:21;99718.87;;;17.94;50.79
75629;BME280;64213;46.452;16.994;2023-04-19T14:28:23;99710.44;;;18.07;50.90
75629;BME280;64213;46.452;16.994;2023-04-19T14:31:25;99716.75;;;18.68;50.19
75629;BME280;64213;46.452;16.994;2023-04-19T14:34:27;99716.00;;;18.57;51.43
75629;BME280;64213;46.452;16.994;2023-04-19T14:37:29;99719.03;;;18.80;51.87
75629;BME280;64213;46.452;16.994;2023-04-19T14:40:31;99716.66;;;18.77;52.18
75629;BME280;64213;46.452;16.994;2023-04-19T14:43:33;99728.19;;;17.44;54.51
75629;BME280;64213;46.452;16.994;2023-04-19T14:46:35;99728.00;;;17.01;56.78
75629;BME280;64213;46.452;16.994;2023-04-19T14:49:37;99725.44;;;16.52;58.19
75629;BME280;64213;46.452;16.994;2023-04-19T14:52:40;99733.69;;;15.83;60.30
75629;BME280;64213;46.452;16.994;2023-04-19T14:55:42;99726.78;;;16.09;59.70
75629;BME280;64213;46.452;16.994;2023-04-19T14:58:44;99725.88;;;16.47;58.00
75629;BME280;64213;46.452;16.994;2023-04-19T15:01:46;99726.25;;;16.72;57.44
75629;BME280;64213;46.452;16.994;2023-04-19T15:04:49;99719.66;;;17.04;56.17
75629;BME280;64213;46.452;16.994;2023-04-19T15:07:51;99704.28;;;16.41;56.55
75629;BME280;64213;46.452;16.994;2023-04-19T15:10:53;99722.16;;;16.21;57.08
75629;BME280;64213;46.452;16.994;2023-04-19T15:13:56;99721.72;;;15.96;57.67
75629;BME280;64213;46.452;16.994;2023-04-19T15:16:58;99721.41;;;16.38;56.25
75629;BME280;64213;46.452;16.994;2023-04-19T15:20:00;99724.91;;;16.39;55.72
75629;BME280;64213;46.452;16.994;2023-04-19T15:23:02;99717.88;;;16.47;55.85
75629;BME280;64213;46.452;16.994;2023-04-19T15:26:04;99724.03;;;16.58;55.44
75629;BME280;64213;46.452;16.994;2023-04-19T15:29:08;99724.44;;;16.63;54.79
75629;BME280;64213;46.452;16.994;2023-04-19T15:32:09;99729.50;;;16.76;54.79
75629;BME280;64213;46.452;16.994;2023-04-19T15:35:11;99734.53;;;16.88;54.25
75629;BME280;64213;46.452;16.994;2023-04-19T15:38:14;99724.16;;;16.66;54.11
75629;BME280;64213;46.452;16.994;2023-04-19T15:41:16;99728.59;;;16.28;53.97
75629;BME280;64213;46.452;16.994;2023-04-19T15:44:18;99729.69;;;16.35;53.25
75629;BME280;64213;46.452;16.994;2023-04-19T15:47:20;99736.06;;;16.05;54.51
75629;BME280;64213;46.452;16.994;2023-04-19T15:50:22;99737.44;;;16.19;54.56
75629;BME280;64213;46.452;16.994;2023-04-19T15:53:24;99734.22;;;15.96;55.53
75629;BME280;64213;46.452;16.994;2023-04-19T15:56:26;99734.66;;;15.31;57.33
75629;BME280;64213;46.452;16.994;2023-04-19T15:59:28;99746.22;;;14.80;58.95
75629;BME280;64213;46.452;16.994;2023-04-19T16:02:32;99742.81;;;14.69;59.78
75629;BME280;64213;46.452;16.994;2023-04-19T16:05:34;99743.53;;;14.50;60.62
75629;BME280;64213;46.452;16.994;2023-04-19T16:08:37;99737.41;;;14.38;61.28
75629;BME280;64213;46.452;16.994;2023-04-19T16:11:39;99743.25;;;14.11;61.97
75629;BME280;64213;46.452;16.994;2023-04-19T16:14:41;99739.34;;;14.15;62.06
75629;BME280;64213;46.452;16.994;2023-04-19T16:17:43;99747.75;;;14.10;61.66